Time;durP1;ratioP1;P1;durP2;ratioP2;P2;SDS_P1;SDS_P2;PMS_P1;PMS_P2;Temp;Humidity;BMP_temperature;BMP_pressure;BME280_temperature;BME280_humidity;BME280_pressure;Samples;Min_cycle;Max_cycle;Signal;HPM_P1;HPM_P2
2023/08/06 00:00:35;;;;;;;36.60;16.75;;;;;;;;;;5154306;27;20073;-86
2023/08/06 00:03:20;;;;;;;25.08;16.60;;;;;;;;;;5133597;27;20030;-87
2023/08/06 00:06:07;;;;;;;26.98;16.77;;;;;;;;;;5133037;27;20595;-86
2023/08/06 00:08:52;;;;;;;25.08;17.00;;;;;;;;;;5140608;27;20034;-86
2023/08/06 00:11:37;;;;;;;23.65;17.10;;;;;;;;;;5151630;27;20065;-86
2023/08/06 00:14:21;;;;;;;28.02;17.40;;;;;;;;;;5119044;27;20096;-87
2023/08/06 00:17:06;;;;;;;25.05;16.58;;;;;;;;;;5133115;27;20080;-86
2023/08/06 00:19:50;;;;;;;26.95;17.92;;;;;;;;;;5133153;27;20034;-86
2023/08/06 00:22:35;;;;;;;25.50;17.00;;;;;;;;;;5117698;27;20034;-87
2023/08/06 00:25:20;;;;;;;27.90;18.15;;;;;;;;;;5135865;27;20477;-87
2023/08/06 00:28:05;;;;;;;29.20;18.02;;;;;;;;;;5153220;27;20041;-86
2023/08/06 00:30:53;;;;;;;27.15;18.48;;;;;;;;;;5133021;27;20046;-87
2023/08/06 00:33:38;;;;;;;30.40;17.88;;;;;;;;;;5132850;27;20049;-86
2023/08/06 00:36:23;;;;;;;28.85;18.02;;;;;;;;;;5117002;27;20678;-87
2023/08/06 00:39:08;;;;;;;25.48;17.67;;;;;;;;;;5116615;27;20086;-86
2023/08/06 00:41:52;;;;;;;23.70;17.73;;;;;;;;;;5103057;27;20033;-87
2023/08/06 00:44:37;;;;;;;31.60;18.45;;;;;;;;;;5141120;27;20387;-87
2023/08/06 00:47:22;;;;;;;27.45;17.95;;;;;;;;;;5136972;27;20107;-86
2023/08/06 00:50:07;;;;;;;28.73;17.10;;;;;;;;;;5152899;27;20402;-86
2023/08/06 00:52:52;;;;;;;28.63;17.58;;;;;;;;;;5137963;27;20042;-86
2023/08/06 00:55:37;;;;;;;31.27;17.45;;;;;;;;;;5137473;27;20390;-87
2023/08/06 00:58:22;;;;;;;28.73;17.30;;;;;;;;;;5152804;27;20443;-87
2023/08/06 01:01:06;;;;;;;28.77;18.10;;;;;;;;;;5152917;27;20091;-85
2023/08/06 01:03:51;;;;;;;26.70;17.33;;;;;;;;;;5110340;28;20073;-87
2023/08/06 01:06:49;;;;;;;29.55;16.85;;;;;;;;;;5132417;27;20041;-87
2023/08/06 01:09:49;;;;;;;26.77;16.98;;;;;;;;;;5132350;27;20073;-86
2023/08/06 01:12:33;;;;;;;28.63;17.90;;;;;;;;;;5120917;28;20050;-87
2023/08/06 01:15:23;;;;;;;25.45;18.40;;;13.90;99.90;;;;;;5130715;28;20046;-87
2023/08/06 01:18:08;;;;;;;24.83;17.00;;;;;;;;;;5132251;28;20551;-87
2023/08/06 01:20:53;;;;;;;27.20;16.88;;;;;;;;;;5131386;28;20123;-87
2023/08/06 01:23:37;;;;;;;29.63;17.35;;;;;;;;;;5132197;28;20034;-87
2023/08/06 01:26:26;;;;;;;27.15;16.65;;;;;;;;;;5130878;28;20136;-87
2023/08/06 01:29:17;;;;;;;29.85;17.08;;;;;;;;;;5111379;28;20077;-86
2023/08/06 01:32:02;;;;;;;24.27;16.30;;;;;;;;;;5111656;28;20089;-86
2023/08/06 01:34:48;;;;;;;27.98;16.80;;;;;;;;;;5111814;28;20081;-87
2023/08/06 01:37:33;;;;;;;24.40;16.35;;;;;;;;;;5111071;28;20034;-87
2023/08/06 01:40:17;;;;;;;23.85;16.63;;;;;;;;;;5110960;28;20039;-86
2023/08/06 01:43:02;;;;;;;24.27;16.35;;;;;;;;;;5110687;28;20050;-87
2023/08/06 01:45:47;;;;;;;23.80;16.45;;;;;;;;;;5110487;28;20498;-87
2023/08/06 01:48:31;;;;;;;33.33;17.77;;;;;;;;;;5111210;28;20399;-86
2023/08/06 01:51:16;;;;;;;28.77;16.48;;;;;;;;;;5110942;28;20046;-86
2023/08/06 01:54:00;;;;;;;29.52;17.33;;;;;;;;;;5114442;28;20042;-86
2023/08/06 01:56:45;;;;;;;29.20;17.52;;;;;;;;;;5114599;27;20061;-86
2023/08/06 01:59:30;;;;;;;31.92;17.63;;;;;;;;;;5114831;28;20042;-86
2023/08/06 02:02:14;;;;;;;24.67;17.25;;;;;;;;;;5114399;27;20046;-86
2023/08/06 02:04:59;;;;;;;26.35;17.35;;;;;;;;;;5115372;28;20034;-86
2023/08/06 02:07:43;;;;;;;27.45;17.20;;;;;;;;;;5115458;28;20076;-87
2023/08/06 02:10:28;;;;;;;30.27;17.00;;;;;;;;;;5123609;27;20055;-87
2023/08/06 02:13:12;;;;;;;31.77;18.10;;;;;;;;;;5148273;27;20077;-87
2023/08/06 02:15:57;;;;;;;27.58;16.67;;;;;;;;;;5143178;27;20088;-87
2023/08/06 02:18:41;;;;;;;26.90;17.58;;;;;;;;;;5125127;27;20521;-87
2023/08/06 02:21:26;;;;;;;30.23;18.45;;;;;;;;;;5149604;27;20042;-87
2023/08/06 02:24:11;;;;;;;26.02;17.05;;;;;;;;;;5120185;27;20041;-87
2023/08/06 02:26:56;;;;;;;30.65;17.05;;;;;;;;;;5135313;27;20079;-87
2023/08/06 02:29:41;;;;;;;29.63;17.45;;;;;;;;;;5149048;27;20090;-87
2023/08/06 02:32:26;;;;;;;24.60;16.35;;;;;;;;;;5134964;27;20058;-87
2023/08/06 02:35:10;;;;;;;24.23;16.10;;;;;;;;;;5135110;27;20040;-86
2023/08/06 02:37:55;;;;;;;26.17;16.30;;;;;;;;;;5119810;27;20487;-86
2023/08/06 02:40:46;;;;;;;25.58;16.80;;;;;;;;;;5134796;27;20061;-87
2023/08/06 02:43:31;;;;;;;24.13;16.25;;;;;;;;;;5132337;27;20038;-87
2023/08/06 02:46:16;;;;;;;23.80;17.02;;;;;;;;;;5114909;27;20087;-86
2023/08/06 02:49:00;;;;;;;28.48;17.15;;;;;;;;;;5135040;27;20077;-87
2023/08/06 02:51:48;;;;;;;25.35;15.63;;;;;;;;;;5119052;27;20529;-87
2023/08/06 02:54:32;;;;;;;23.42;16.10;;;;;;;;;;5119063;27;20407;-87
2023/08/06 02:57:17;;;;;;;25.77;16.70;;;;;;;;;;5134796;27;20125;-86
2023/08/06 03:00:01;;;;;;;25.98;17.33;;;;;;;;;;5119378;27;20081;-87
2023/08/06 03:02:46;;;;;;;22.67;16.65;;;;;;;;;;5118220;27;20535;-87
2023/08/06 03:05:31;;;;;;;26.33;16.83;;;;;;;;;;5134160;27;20041;-88
2023/08/06 03:08:15;;;;;;;29.42;16.17;;;;;;;;;;5104903;27;20452;-85
2023/08/06 03:11:00;;;;;;;22.50;16.85;;;;;;;;;;5118682;27;20073;-87
2023/08/06 03:13:44;;;;;;;25.50;16.13;;;;;;;;;;5118525;27;20100;-86
2023/08/06 03:16:30;;;;;;;23.60;15.77;;;;;;;;;;5134080;27;20555;-86
2023/08/06 03:19:14;;;;;;;24.42;16.50;;;;;;;;;;5119087;27;20049;-87
2023/08/06 03:21:59;;;;;;;25.40;15.95;;;;;;;;;;5145647;27;20080;-88
2023/08/06 03:24:44;;;;;;;22.30;14.63;;;;;;;;;;5133696;27;20406;-87
2023/08/06 03:27:28;;;;;;;24.73;15.30;;;;;;;;;;5118378;27;20459;-86
2023/08/06 03:30:13;;;;;;;21.33;14.88;;;;;;;;;;5118810;27;20041;-87
2023/08/06 03:32:57;;;;;;;20.85;15.52;;;;;;;;;;5118510;27;20057;-87
2023/08/06 03:35:41;;;;;;;23.02;14.60;;;;;;;;;;5143869;27;20551;-87
2023/08/06 03:38:27;;;;;;;23.52;14.82;;;;;;;;;;5138886;27;20035;-87
2023/08/06 03:41:12;;;;;;;33.80;15.63;;;;;;;;;;5154721;27;20388;-87
2023/08/06 03:43:56;;;;;;;23.58;15.45;;;;;;;;;;5134050;27;20172;-87
2023/08/06 03:46:41;;;;;;;20.67;14.15;;;;;;;;;;5133224;27;20046;-86
2023/08/06 03:49:26;;;;;;;20.15;13.73;;;;;;;;;;5118382;27;20042;-86
2023/08/06 03:52:10;;;;;;;20.45;12.27;;;;;;;;;;5133671;27;20139;-87
2023/08/06 03:54:55;;;;;;;21.95;14.63;;;;;;;;;;5117816;27;20053;-86
2023/08/06 03:57:39;;;;;;;20.30;12.70;;;;;;;;;;5133020;27;20114;-87
2023/08/06 04:00:24;;;;;;;22.35;13.73;;;;;;;;;;5133595;27;20179;-86
2023/08/06 04:03:08;;;;;;;22.13;14.30;;;;;;;;;;5118173;27;20062;-87
2023/08/06 04:05:53;;;;;;;18.30;14.07;;;;;;;;;;5133126;27;20045;-87
2023/08/06 04:08:37;;;;;;;20.58;13.55;;;;;;;;;;5132613;27;20034;-87
2023/08/06 04:11:22;;;;;;;20.42;13.45;;;;;;;;;;5136269;27;20064;-87
2023/08/06 04:14:06;;;;;;;25.40;13.20;;;;;;;;;;5133636;27;20395;-87
2023/08/06 04:16:51;;;;;;;21.52;14.55;;;;;;;;;;5150725;27;20118;-87
2023/08/06 04:19:36;;;;;;;16.63;13.07;;;;;;;;;;5136704;27;20050;-86
2023/08/06 04:22:21;;;;;;;20.40;13.88;;;;;;;;;;5130033;27;20038;-87
2023/08/06 04:25:06;;;;;;;22.35;12.85;;;;;;;;;;5133261;27;20148;-86
2023/08/06 04:27:50;;;;;;;29.40;14.63;;;;;;;;;;5132465;27;20042;-86
2023/08/06 04:30:35;;;;;;;25.85;14.73;;;;;;;;;;5132792;27;20497;-85
2023/08/06 04:33:20;;;;;;;18.90;14.00;;;;;;;;;;5117453;27;20468;-87
2023/08/06 04:36:05;;;;;;;27.33;14.90;;;;;;;;;;5133089;27;20498;-87
2023/08/06 04:38:49;;;;;;;35.42;15.88;;;;;;;;;;5124688;27;20034;-87
2023/08/06 04:41:34;;;;;;;25.70;15.82;;;;;;;;;;5137740;27;20041;-86
2023/08/06 04:44:18;;;;;;;23.40;16.38;;;;;;;;;;5153553;27;20045;-87
2023/08/06 04:47:03;;;;;;;25.83;15.18;;;;;;;;;;5153233;27;20057;-86
2023/08/06 04:49:47;;;;;;;28.05;16.73;;;;;;;;;;5152886;27;20041;-87
2023/08/06 04:52:32;;;;;;;29.15;16.20;;;;;;;;;;5137822;27;20443;-87
2023/08/06 04:55:17;;;;;;;31.90;16.67;;;;;;;;;;5135465;27;20045;-87
2023/08/06 04:58:01;;;;;;;37.58;17.83;;;;;;;;;;5116584;27;20045;-87
2023/08/06 05:00:46;;;;;;;34.00;17.00;;;;;;;;;;5116674;27;20455;-87
2023/08/06 05:03:30;;;;;;;32.92;19.58;;;;;;;;;;5132517;27;20038;-86
2023/08/06 05:06:15;;;;;;;28.25;18.65;;;;;;;;;;5132637;27;20057;-86
2023/08/06 05:08:59;;;;;;;30.70;19.38;;;;;;;;;;5116281;27;20099;-87
2023/08/06 05:11:44;;;;;;;30.52;18.05;;;;;;;;;;5132123;27;20119;-86
2023/08/06 05:14:28;;;;;;;28.63;17.40;;;;;;;;;;5132483;27;20123;-87
2023/08/06 05:17:13;;;;;;;30.88;18.13;;;;;;;;;;5132471;27;20080;-87
2023/08/06 05:19:57;;;;;;;38.83;19.10;;;;;;;;;;5138302;27;20046;-87
2023/08/06 05:22:42;;;;;;;30.30;18.05;;;;;;;;;;5136980;27;20398;-86
2023/08/06 05:25:26;;;;;;;27.20;17.67;;;;;;;;;;5153251;27;20245;-87
2023/08/06 05:28:11;;;;;;;31.23;17.67;;;;;;;;;;5141478;27;20034;-87
2023/08/06 05:30:56;;;;;;;34.58;17.85;;;;;;;;;;5156694;27;20099;-87
2023/08/06 05:33:40;;;;;;;25.90;18.40;;;;;;;;;;5136586;27;20047;-87
2023/08/06 05:36:25;;;;;;;26.02;17.38;;;;;;;;;;5136859;27;20110;-85
2023/08/06 05:39:09;;;;;;;26.00;17.45;;;;;;;;;;5120823;27;20046;-87
2023/08/06 05:41:55;;;;;;;31.88;17.35;;;;;;;;;;5135398;27;20510;-87
2023/08/06 05:44:39;;;;;;;26.80;16.80;;;;;;;;;;5120735;27;20080;-87
2023/08/06 05:47:24;;;;;;;25.55;16.80;;;;;;;;;;5122109;27;20038;-87
2023/08/06 05:50:09;;;;;;;29.38;18.25;;;;;;;;;;5120081;27;20119;-87
2023/08/06 05:52:53;;;;;;;30.50;19.10;;;;;;;;;;5135693;27;20118;-87
2023/08/06 05:55:39;;;;;;;30.70;18.70;;;;;;;;;;5126800;27;20091;-86
2023/08/06 05:58:26;;;;;;;30.25;18.30;;;;;;;;;;5156573;27;20030;-87
2023/08/06 06:01:10;;;;;;;27.70;18.25;;;;;;;;;;5140514;27;20159;-87
2023/08/06 06:03:55;;;;;;;25.83;17.23;;;;;;;;;;5155899;27;20091;-87
2023/08/06 06:06:41;;;;;;;25.38;17.70;;;;;;;;;;5156623;27;20126;-87
2023/08/06 06:09:26;;;;;;;27.98;17.83;;;;;;;;;;5135815;27;20062;-87
2023/08/06 06:12:11;;;;;;;25.77;17.15;;;;;;;;;;5119393;27;20058;-87
2023/08/06 06:14:55;;;;;;;27.73;18.25;;;;;;;;;;5116345;27;20042;-86
2023/08/06 06:17:39;;;;;;;26.08;17.90;;;;;;;;;;5156234;27;20087;-87
2023/08/06 06:20:24;;;;;;;25.30;16.75;;;;;;;;;;5140576;27;20049;-86
2023/08/06 06:23:09;;;;;;;27.13;17.77;;;;;;;;;;5139910;27;20038;-87
2023/08/06 06:25:53;;;;;;;25.58;16.02;;;;;;;;;;5140115;27;20061;-85
2023/08/06 06:28:38;;;;;;;22.08;17.08;;;;;;;;;;5135402;27;20038;-86
2023/08/06 06:31:23;;;;;;;28.50;18.08;;;;;;;;;;5136482;27;20077;-86
2023/08/06 06:34:07;;;;;;;27.58;17.40;;;;;;;;;;5134875;27;20034;-87
2023/08/06 06:36:52;;;;;;;25.60;16.55;;;;;;;;;;5119269;27;20444;-85
2023/08/06 06:39:36;;;;;;;24.90;18.63;;;;;;;;;;5134737;27;20096;-87
2023/08/06 06:42:22;;;;;;;24.70;17.45;;;;;;;;;;5135171;27;20058;-88
2023/08/06 06:45:07;;;;;;;30.88;17.92;;;;;;;;;;5132097;27;20505;-87
2023/08/06 06:47:52;;;;;;;25.92;17.75;;;;;;;;;;5124752;27;20046;-86
2023/08/06 06:50:38;;;;;;;25.55;17.88;;;;;;;;;;5137567;27;20543;-88
2023/08/06 06:53:30;;;;;;;23.38;17.38;;;;;;;;;;5149447;27;20038;-88
2023/08/06 06:56:15;;;;;;;31.05;18.52;;;;;;;;;;5116650;27;20109;-88
2023/08/06 06:58:59;;;;;;;29.98;18.10;;;;;;;;;;5149817;27;20037;-88
2023/08/06 07:01:44;;;;;;;24.83;19.17;;;;;;;;;;5152533;27;20049;-86
2023/08/06 07:04:28;;;;;;;24.10;17.77;;;;;;;;;;5133132;27;20041;-87
2023/08/06 07:07:13;;;;;;;28.08;17.60;;;;;;;;;;5154205;27;20257;-87
2023/08/06 07:09:57;;;;;;;27.05;16.80;;;;;;;;;;5130789;27;20127;-85
2023/08/06 07:12:42;;;;;;;26.35;17.17;;;;;;;;;;5147065;27;20213;-87
2023/08/06 07:15:27;;;;;;;22.70;16.13;;;;;;;;;;5137773;27;20042;-86
2023/08/06 07:18:11;;;;;;;20.00;15.18;;;;;;;;;;5135628;27;20066;-86
2023/08/06 07:20:56;;;;;;;20.35;15.50;;;;;;;;;;5149031;27;20402;-86
2023/08/06 07:23:41;;;;;;;19.73;16.05;;;;;;;;;;5134133;27;20402;-84
2023/08/06 07:26:25;;;;;;;19.77;14.55;;;;;;;;;;5126758;27;20037;-87
2023/08/06 07:29:10;;;;;;;20.50;14.98;;;;;;;;;;5127056;27;20398;-87
2023/08/06 07:31:55;;;;;;;16.25;13.45;;;;;;;;;;5137184;27;20070;-86
2023/08/06 07:34:40;;;;;;;19.45;12.90;;;;;;;;;;5151316;27;20073;-86
2023/08/06 07:37:24;;;;;;;15.35;12.98;;;;;;;;;;5147175;27;20033;-86
2023/08/06 07:40:09;;;;;;;15.38;13.27;;;;;;;;;;5149454;27;20034;-86
2023/08/06 07:42:54;;;;;;;13.95;11.88;;;;;;;;;;5135060;27;20038;-86
2023/08/06 07:45:38;;;;;;;16.77;12.65;;;;;;;;;;5139051;27;20079;-86
2023/08/06 07:48:23;;;;;;;14.82;11.82;;;;;;;;;;5142380;27;20083;-86
2023/08/06 07:51:07;;;;;;;13.40;11.93;;;;;;;;;;5141854;27;20042;-87
2023/08/06 07:53:52;;;;;;;12.57;10.65;;;;;;;;;;5132597;27;20077;-86
2023/08/06 07:56:37;;;;;;;12.55;10.15;;;;;;;;;;5135513;27;20524;-86
2023/08/06 07:59:22;;;;;;;10.98;9.43;;;;;;;;;;5129762;27;20707;-86
2023/08/06 08:02:06;;;;;;;10.80;9.70;;;;;;;;;;5139431;27;20037;-86
2023/08/06 08:04:51;;;;;;;13.18;10.63;;;;;;;;;;5154196;27;20069;-86
2023/08/06 08:07:36;;;;;;;13.60;10.48;;;;;;;;;;5136487;27;20396;-87
2023/08/06 08:10:20;;;;;;;13.73;9.57;;;;;;;;;;5134620;27;20230;-86
2023/08/06 08:13:05;;;;;;;13.05;10.25;;;;;;;;;;5146064;27;20077;-85
2023/08/06 08:15:50;;;;;;;11.80;9.35;;;;;;;;;;5149428;27;20119;-86
2023/08/06 08:18:35;;;;;;;11.15;10.00;;;;;;;;;;5149557;27;20095;-87
2023/08/06 08:21:19;;;;;;;10.13;9.05;;;;;;;;;;5147218;27;20080;-86
2023/08/06 08:24:05;;;;;;;12.27;10.23;;;;;;;;;;5133265;27;20084;-86
2023/08/06 08:26:49;;;;;;;13.70;9.70;;;;;;;;;;5117816;27;20153;-87
2023/08/06 08:29:34;;;;;;;12.75;10.00;;;;;;;;;;5132958;27;20042;-87
2023/08/06 08:32:18;;;;;;;12.38;10.30;;;;;;;;;;5132714;27;20042;-87
2023/08/06 08:35:03;;;;;;;13.48;9.13;;;;;;;;;;5132968;27;20042;-86
2023/08/06 08:37:48;;;;;;;9.82;8.80;;;;;;;;;;5133049;27;20046;-87
2023/08/06 08:40:33;;;;;;;13.32;9.10;;;;;;;;;;5132788;27;20042;-87
2023/08/06 08:43:18;;;;;;;10.38;8.95;;;;;;;;;;5132285;27;20056;-87
2023/08/06 08:46:04;;;;;;;12.73;9.52;;;;;;;;;;5117360;27;20398;-87
2023/08/06 08:48:49;;;;;;;13.35;8.90;;;;;;;;;;5132592;27;20502;-86
2023/08/06 08:51:35;;;;;;;10.38;8.98;;;;;;;;;;5132285;27;20103;-86
2023/08/06 08:54:20;;;;;;;10.98;8.75;;;;;;;;;;5116739;27;20054;-87
2023/08/06 08:57:05;;;;;;;10.38;7.72;;;;;;;;;;5132582;27;20402;-86
2023/08/06 08:59:50;;;;;;;10.20;7.47;;;;;;;;;;5132671;27;20115;-86
2023/08/06 09:02:37;;;;;;;7.57;6.05;;;;;;;;;;5117144;27;20084;-86
2023/08/06 09:05:23;;;;;;;7.38;5.60;;;;;;;;;;5132968;27;20168;-87
2023/08/06 09:08:11;;;;;;;8.15;6.40;;;;;;;;;;5132626;27;20156;-87
2023/08/06 09:10:57;;;;;;;6.57;5.70;;;;;;;;;;5132113;27;20050;-86
2023/08/06 09:13:42;;;;;;;8.13;6.00;;;;;;;;;;5132473;27;20051;-87
2023/08/06 09:16:27;;;;;;;8.20;5.82;;;;;;;;;;5102054;28;20458;-86
2023/08/06 09:19:12;;;;;;;5.70;5.10;;;;;;;;;;5116609;27;20034;-84
2023/08/06 09:21:57;;;;;;;9.15;5.15;;;;;;;;;;5123119;27;20041;-86
2023/08/06 09:24:42;;;;;;;6.18;4.75;;;;;;;;;;5135013;27;20035;-86
2023/08/06 09:27:27;;;;;;;7.75;4.38;;;;;;;;;;5131963;27;20077;-87
2023/08/06 09:30:12;;;;;;;6.47;3.80;;;;;;;;;;5139080;27;20076;-86
2023/08/06 09:32:57;;;;;;;6.32;3.53;;;;;;;;;;5151769;27;20075;-87
2023/08/06 09:35:41;;;;;;;5.20;3.53;;;;;;;;;;5116895;28;20080;-86
2023/08/06 09:38:29;;;;;;;5.32;3.72;;;;;;;;;;5131605;27;20119;-85
2023/08/06 09:41:27;;;;;;;5.43;3.63;;;;;;;;;;5132226;27;20098;-84
2023/08/06 09:44:19;;;;;;;4.90;3.35;;;;;;;;;;5126599;27;20042;-86
2023/08/06 09:47:04;;;;;;;4.55;3.15;;;;;;;;;;5152762;27;20034;-86
2023/08/06 09:49:51;;;;;;;3.50;2.80;;;;;;;;;;5152581;27;20061;-84
2023/08/06 09:52:36;;;;;;;4.28;2.72;;;;;;;;;;5152408;27;20332;-86
2023/08/06 09:55:21;;;;;;;4.25;2.78;;;;;;;;;;5152056;27;20141;-86
2023/08/06 09:58:07;;;;;;;5.82;2.92;;;;;;;;;;5152679;27;20448;-88
2023/08/06 10:00:51;;;;;;;4.13;2.88;;;;;;;;;;5152790;27;20103;-87
2023/08/06 10:03:37;;;;;;;3.30;2.40;;;;;;;;;;5152049;27;20098;-86
2023/08/06 10:06:22;;;;;;;3.58;2.33;;;;;;;;;;5152247;27;20069;-86
2023/08/06 10:09:09;;;;;;;3.65;2.53;;;;;;;;;;5152524;27;20038;-85
2023/08/06 10:11:54;;;;;;;4.13;2.55;;;;;;;;;;5152520;27;20436;-86
2023/08/06 10:14:39;;;;;;;5.55;2.35;;;;;;;;;;5119588;27;20033;-87
2023/08/06 10:17:24;;;;;;;4.95;2.75;;;;;;;;;;5135118;27;20089;-86
2023/08/06 10:20:09;;;;;;;6.07;2.53;;;;;;;;;;5143696;27;20070;-86
2023/08/06 10:23:01;;;;;;;4.75;2.45;;;;;;;;;;5140477;27;20038;-86
2023/08/06 10:25:55;;;;;;;4.30;2.47;;;;;;;;;;5156336;27;20060;-87
2023/08/06 10:28:40;;;;;;;4.68;2.40;;;;;;;;;;5155862;27;20513;-86
2023/08/06 10:31:43;;;;;;;8.25;2.95;;;;;;;;;;5139783;27;20067;-87
2023/08/06 10:34:54;;;;;;;4.32;2.45;;;;;;;;;;5155708;27;20818;-87
2023/08/06 10:37:39;;;;;;;3.65;2.20;;;;;;;;;;5134879;27;20072;-86
2023/08/06 10:40:24;;;;;;;4.70;2.60;;;;;;;;;;5141491;27;20045;-85
2023/08/06 10:43:25;;;;;;;4.65;2.63;;;;;;;;;;5140375;27;20138;-87
2023/08/06 10:46:10;;;;;;;3.75;2.28;;;;;;;;;;5155949;27;20527;-86
2023/08/06 10:48:55;;;;;;;3.75;2.28;;;;;;;;;;5155902;27;20528;-86
2023/08/06 10:51:40;;;;;;;4.22;2.40;;;;;;;;;;5155107;27;20414;-85
2023/08/06 10:54:26;;;;;;;3.75;2.65;;;;;;;;;;5155281;27;20558;-86
2023/08/06 10:57:10;;;;;;;5.20;2.60;;;;;;;;;;5155552;27;20444;-86
2023/08/06 10:59:55;;;;;;;3.17;2.40;;;;;;;;;;5139958;27;20493;-86
2023/08/06 11:02:40;;;;;;;3.78;2.58;;;;;;;;;;5155131;27;20045;-86
2023/08/06 11:05:24;;;;;;;4.97;2.05;;;;;;;;;;5139459;27;20038;-84
2023/08/06 11:08:09;;;;;;;3.03;2.22;;;;;;;;;;5155582;27;20493;-88
2023/08/06 11:10:53;;;;;;;3.20;2.28;;;;;;;;;;5139822;27;20118;-87
2023/08/06 11:13:38;;;;;;;6.07;2.38;;;;;;;;;;5154666;27;20406;-85
2023/08/06 11:16:26;;;;;;;4.72;2.25;;;;;;;;;;5155366;27;20526;-86
2023/08/06 11:19:11;;;;;;;3.38;2.13;;;;;;;;;;5139418;27;20079;-86
2023/08/06 11:21:56;;;;;;;3.38;2.38;;;;;;;;;;5143294;27;20115;-87
2023/08/06 11:24:41;;;;;;;3.03;2.10;;;;;;;;;;5138598;27;20038;-87
2023/08/06 11:27:26;;;;;;;3.58;2.03;;;;;;;;;;5155116;27;20069;-87
2023/08/06 11:30:12;;;;;;;3.35;2.20;;;;;;;;;;5155046;27;20755;-87
2023/08/06 11:32:57;;;;;;;3.08;2.13;;;;;;;;;;5154755;27;20073;-86
2023/08/06 11:35:41;;;;;;;2.78;1.88;;;;;;;;;;5138791;27;20030;-87
2023/08/06 11:38:27;;;;;;;5.85;2.20;;;;;;;;;;5154732;27;20390;-86
2023/08/06 11:41:12;;;;;;;3.42;2.15;;;;;;;;;;5154876;27;20048;-87
2023/08/06 11:43:57;;;;;;;2.40;1.85;;;;;;;;;;5154821;27;20034;-86
2023/08/06 11:46:55;;;;;;;5.05;2.47;;;;;;;;;;5123905;27;20152;-88
2023/08/06 11:49:47;;;;;;;3.53;2.50;;;;;;;;;;5138457;27;20042;-88
2023/08/06 11:52:31;;;;;;;3.03;2.00;;;;;;;;;;5154194;27;20462;-85
2023/08/06 11:55:18;;;;;;;4.60;2.33;;;;;;;;;;5138646;27;20057;-89
2023/08/06 11:58:06;;;;;;;3.28;1.90;;;;;;;;;;5138867;27;20091;-86
2023/08/06 12:00:51;;;;;;;3.47;2.10;;;;;;;;;;5153991;27;20034;-88
2023/08/06 12:03:42;;;;;;;2.70;2.03;;;;;;;;;;5153693;27;20054;-88
2023/08/06 12:06:30;;;;;;;3.15;2.10;;;;;;;;;;5138844;27;20042;-87
2023/08/06 12:09:14;;;;;;;2.63;1.95;;;;;;;;;;5133563;27;20034;-87
2023/08/06 12:11:59;;;;;;;4.95;2.20;;;;;;;;;;5133362;27;20117;-88
2023/08/06 12:14:44;;;;;;;3.58;2.40;;;;;;;;;;5132999;27;20038;-89
2023/08/06 12:17:28;;;;;;;4.43;1.95;;;;;;;;;;5133331;27;20483;-88
2023/08/06 12:20:13;;;;;;;3.63;2.20;;;;;;;;;;5141936;27;20042;-89
2023/08/06 12:22:57;;;;;;;3.67;2.13;;;;;;;;;;5134804;27;20041;-88
2023/08/06 12:25:44;;;;;;;6.25;2.65;;;;;;;;;;5129187;27;20091;-88
2023/08/06 12:28:28;;;;;;;2.95;2.08;;;;;;;;;;5154030;27;20096;-89
2023/08/06 12:31:13;;;;;;;2.60;2.00;;;;;;;;;;5153619;27;20449;-88
2023/08/06 12:33:58;;;;;;;3.05;2.53;;;;;;;;;;5137693;27;20052;-89
2023/08/06 12:36:42;;;;;;;3.95;2.20;;;;;;;;;;5152556;27;20126;-88
2023/08/06 12:39:28;;;;;;;4.00;2.30;;;;;;;;;;5138142;27;20495;-88
2023/08/06 12:42:13;;;;;;;3.75;2.30;;;;;;;;;;5153736;27;20517;-88
2023/08/06 12:44:57;;;;;;;3.17;2.30;;;;;;;;;;5152927;27;20598;-89
2023/08/06 12:47:42;;;;;;;5.32;2.60;;;;;;;;;;5137456;27;20087;-89
2023/08/06 12:50:27;;;;;;;4.47;2.35;;;;;;;;;;5137668;27;20394;-89
2023/08/06 12:53:11;;;;;;;3.88;2.47;;;;;;;;;;5139238;27;20131;-88
2023/08/06 12:55:56;;;;;;;3.35;2.45;;;;;;;;;;5116719;27;20111;-89
2023/08/06 12:58:41;;;;;;;6.57;3.00;;;;;;;;;;5132077;27;20065;-88
2023/08/06 13:01:26;;;;;;;4.57;2.28;;;;;;;;;;5132785;27;20073;-89
2023/08/06 13:04:11;;;;;;;4.22;2.60;;;;;;;;;;5132621;27;20037;-89
2023/08/06 13:06:55;;;;;;;5.28;2.60;;;;;;;;;;5131927;27;20037;-89
2023/08/06 13:09:40;;;;;;;2.80;2.00;;;;;;;;;;5132304;27;20455;-86
2023/08/06 13:12:24;;;;;;;4.43;2.60;;;;;;;;;;5132324;27;20148;-89
2023/08/06 13:15:09;;;;;;;3.67;2.35;;;;;;;;;;5132491;27;20037;-90
2023/08/06 13:17:54;;;;;;;3.75;2.50;;;;;;;;;;5132056;27;20040;-88
2023/08/06 13:20:40;;;;;;;3.97;2.72;;;;;;;;;;5129074;27;20050;-90
2023/08/06 13:23:25;;;;;;;4.47;2.55;;;;;;;;;;5146326;27;20066;-89
2023/08/06 13:26:09;;;;;;;4.75;2.28;;;;;;;;;;5132160;27;20066;-88
2023/08/06 13:28:54;;;;;;;3.65;2.28;;;;;;;;;;5131819;27;20073;-88
2023/08/06 13:31:39;;;;;;;3.13;2.42;;;;;;;;;;5132124;27;20108;-88
2023/08/06 13:34:23;;;;;;;3.55;2.63;;;;;;;;;;5132421;27;20046;-88
2023/08/06 13:37:08;;;;;;;4.15;2.33;;;;;;;;;;5132270;27;20039;-88
2023/08/06 13:39:53;;;;;;;4.07;2.22;;;;;;;;;;5131631;27;20039;-89
2023/08/06 13:42:37;;;;;;;3.88;2.25;;;;;;;;;;5117916;28;20091;-88
2023/08/06 13:45:22;;;;;;;3.28;2.10;;;;;;;;;;5133167;27;20070;-90
2023/08/06 13:48:08;;;;;;;5.25;2.40;;;;;;;;;;5137817;27;20066;-87
2023/08/06 13:50:53;;;;;;;4.10;2.35;;;;;;;;;;5135609;27;20513;-89
2023/08/06 13:53:41;;;;;;;4.25;2.50;;;;;;;;;;5160405;27;20030;-89
2023/08/06 13:56:25;;;;;;;3.80;2.25;;;;;;;;;;5157136;27;20046;-89
2023/08/06 13:59:13;;;;;;;5.20;2.78;;;;;;;;;;5156349;27;20042;-89
2023/08/06 14:01:59;;;;;;;3.80;2.40;;;;;;;;;;5155978;27;20056;-88
2023/08/06 14:04:44;;;;;;;3.45;2.33;;;;;;;;;;5156844;27;20034;-89
2023/08/06 14:07:28;;;;;;;6.55;2.80;;;;;;;;;;5156656;27;20176;-89
2023/08/06 14:10:13;;;;;;;6.00;2.70;;;;;;;;;;5156698;27;20069;-88
2023/08/06 14:12:57;;;;;;;4.05;2.80;;;;;;;;;;5156071;27;20062;-88
2023/08/06 14:15:46;;;;;;;4.35;2.10;;;;;;;;;;5140762;27;20390;-89
2023/08/06 14:18:31;;;;;;;3.97;2.42;;;;;;;;;;5156654;27;20087;-88
2023/08/06 14:21:15;;;;;;;4.10;2.45;;;;;;;;;;5138624;27;20095;-87
2023/08/06 14:24:00;;;;;;;12.77;2.78;;;;;;;;;;5135209;27;20064;-88
2023/08/06 14:26:45;;;;;;;5.78;2.65;;;;;;;;;;5135765;27;20045;-88
2023/08/06 14:29:29;;;;;;;4.93;2.70;;;;;;;;;;5135456;27;20502;-89
2023/08/06 14:32:17;;;;;;;8.32;2.63;;;;;;;;;;5135102;27;20515;-89
2023/08/06 14:35:02;;;;;;;6.57;3.42;;;;;;;;;;5134829;27;20137;-87
2023/08/06 14:37:47;;;;;;;12.43;3.85;;;;;;;;;;5119978;27;20045;-88
2023/08/06 14:40:34;;;;;;;5.35;2.95;;;;;;;;;;5135476;27;20087;-88
2023/08/06 14:43:19;;;;;;;8.88;3.50;;;;;;;;;;5137146;27;20043;-88
2023/08/06 14:46:03;;;;;;;6.47;2.60;;;;;;;;;;5139777;27;20083;-88
2023/08/06 14:48:48;;;;;;;2.88;2.17;;;;;;;;;;5155769;27;20050;-88
2023/08/06 14:51:32;;;;;;;5.88;2.40;;;;;;;;;;5139898;27;20115;-88
2023/08/06 14:54:18;;;;;;;5.13;2.50;;;;;;;;;;5139711;27;20050;-88
2023/08/06 14:57:02;;;;;;;6.50;2.53;;;;;;;;;;5155031;27;20878;-89
2023/08/06 14:59:46;;;;;;;5.70;2.30;;;;;;;;;;5155127;27;20104;-89
2023/08/06 15:02:31;;;;;;;7.95;2.20;;;;;;;;;;5134984;27;20065;-89
2023/08/06 15:05:16;;;;;;;6.93;2.67;;;;;;;;;;5118853;27;20042;-88
2023/08/06 15:08:01;;;;;;;5.07;2.08;;;;;;;;;;5118791;27;20030;-89
2023/08/06 15:10:51;;;;;;;6.72;2.85;;;;;;;;;;5134622;27;20054;-89
2023/08/06 15:13:36;;;;;;;2.65;2.20;;;;;;;;;;5093784;28;20557;-89
2023/08/06 15:16:20;;;;;;;2.97;2.30;;;;;;;;;;5093296;28;20078;-88
2023/08/06 15:19:05;;;;;;;2.60;2.20;;;;;;;;;;5093005;28;20085;-88
2023/08/06 15:21:50;;;;;;;4.85;2.70;;;;;;;;;;5093711;28;20061;-88
2023/08/06 15:24:36;;;;;;;3.55;2.60;;;;;;;;;;5093535;28;20070;-88
2023/08/06 15:27:21;;;;;;;3.58;2.40;;;;;;;;;;5093434;28;20035;-88
2023/08/06 15:30:06;;;;;;;3.67;2.35;;;;;;;;;;5092703;28;20541;-88
2023/08/06 15:32:51;;;;;;;5.68;2.75;;;;;;;;;;5092330;28;20078;-88
2023/08/06 15:35:36;;;;;;;3.35;2.53;;;;;;;;;;5093432;28;20031;-88
2023/08/06 15:38:20;;;;;;;5.57;2.40;;;;;;;;;;5092631;28;20289;-88
2023/08/06 15:41:05;;;;;;;3.65;2.60;;;;;;;;;;5092670;28;20058;-88
2023/08/06 15:43:50;;;;;;;2.95;2.22;;;;;;;;;;5092224;28;20119;-88
2023/08/06 15:46:36;;;;;;;3.53;2.40;;;;;;;;;;5093247;28;20058;-88
2023/08/06 15:49:20;;;;;;;3.90;2.22;;;;;;;;;;5113045;28;20109;-88
2023/08/06 15:52:05;;;;;;;2.50;2.00;;;;;;;;;;5111494;28;20173;-88
2023/08/06 15:54:50;;;;;;;4.32;2.30;;;;;;;;;;5113315;28;20043;-89
2023/08/06 15:57:35;;;;;;;4.20;2.00;;;;;;;;;;5112280;28;20076;-88
2023/08/06 16:00:20;;;;;;;3.13;2.50;;;;;;;;;;5112421;28;20039;-89
2023/08/06 16:03:04;;;;;;;3.78;2.40;;;;;;;;;;5112724;28;20473;-85
2023/08/06 16:05:49;;;;;;;2.78;2.08;;;;;;;;;;5111873;28;20080;-88
2023/08/06 16:08:34;;;;;;;4.45;2.17;;;;;;;;;;5112954;28;20046;-88
2023/08/06 16:11:19;;;;;;;3.90;2.42;;;;;;;;;;5113762;27;20122;-89
2023/08/06 16:14:04;;;;;;;3.47;2.30;;;;;;;;;;5153981;27;20039;-87